Monroe, WI (53566)

8:47 PM CST on February 21, 2017 (GMT -0600)
North edge of city | | Change Station
Active Advisory: Hydrologic Statement

Elev 1040 ft 42.61 °N, 89.64 °W | Updated 8 seconds ago

Clear
Clear
48.4 °F
Feels Like 48 °F
N
1.0
Wind Variable Wind from NNW

Today
High -- | Low -- °F
--% Chance of Precip.
Yesterday
High -- | Low -- °F
Precip. -- in
Pressure 29.85 in
Visibility 10.0 miles
Clouds Clear
Windchill 48 °F
Dew Point 40 °F
Humidity 73%
Rainfall 0.11 in
Snow Depth Not available.
6:46 AM 5:38 PM
Waning Crescent, 21% visible
METAR KEFT 220235Z AUTO 19009KT 10SM CLR 08/04 A2985 RMK AO2
Pressure 29.85 in
Visibility 10.0 miles
Clouds Clear
Windchill 48 °F
Dew Point 40 °F
Humidity 73%
Rainfall 0.11 in
Snow Depth Not available.
6:46 AM 5:38 PM
Waning Crescent, 21% visible
METAR KEFT 220235Z AUTO 19009KT 10SM CLR 08/04 A2985 RMK AO2

Get Your Daily Forecast Email!

Thanks for signing up!

Be on the lookout for a verification email in your inbox.

You'll start receiving the daily forecast at 8 AM.

×

10-Day Weather Forecast

Almanac

Astronomy

Feb. 21, 2017 Rise Set
Actual Time
Civil Twilight
Nautical Twilight
Astronomical Twilight
Moon
Length of Visible Light
Length of Day
Tomorrow will be .
, % of the Moon is Illuminated

Today's Extremes

State Highs State Lows

Community

WunderPhotos

Upload Photos

1,962,540 photos uploaded!

WunderBlog® & News

Nearby

Air Quality

  Air Quality AQ Index Pollutant
Not available.

Snow Depth

Station Depth Elevation

Earthquake Activity

City Distance Mag. Time & Date
Minimum magnitude displayed is 2.5.

Coastal Water Temperatures

Place Temperature

Stations

Nearby Weather Stations

Station Location Temp. Windchill Dew Point Humidity Wind Precip. Elev Updated Type
                   

Watches & Warnings

Hydrologic Statement
Issued: 2:32 PM CST Feb. 21, 2017 – National Weather Service

Forecast information for
sugar river at Brodhead.
* At 1:15 PM Tuesday the stage was 1.9 feet.
* Flood stage is 5.0 feet.
* Impact... at 4.5 feet... minor lowland flooding occurs.